createdAt,value
2019-03-30T00:02:17.187Z,13.10
2019-03-30T00:04:47.641Z,12.83
2019-03-30T00:07:18.035Z,13.07
2019-03-30T00:09:48.470Z,12.73
2019-03-30T00:12:18.953Z,12.70
2019-03-30T00:14:49.270Z,12.17
2019-03-30T00:17:19.628Z,11.60
2019-03-30T00:19:50.064Z,12.47
2019-03-30T00:22:20.341Z,12.77
2019-03-30T00:24:50.769Z,12.83
2019-03-30T00:27:21.082Z,12.53
2019-03-30T00:29:51.444Z,12.63
2019-03-30T00:32:21.934Z,12.27
2019-03-30T00:34:52.320Z,12.13
2019-03-30T00:37:22.721Z,13.00
2019-03-30T00:39:53.064Z,11.53
2019-03-30T00:42:23.480Z,11.67
2019-03-30T00:44:53.792Z,13.27
2019-03-30T00:47:24.227Z,11.93
2019-03-30T00:49:54.561Z,12.33
2019-03-30T00:52:24.908Z,12.33
2019-03-30T00:54:55.256Z,12.07
2019-03-30T00:57:25.684Z,11.53
2019-03-30T00:59:56.172Z,13.00
2019-03-30T01:02:26.520Z,12.60
2019-03-30T01:04:57.089Z,12.83
2019-03-30T01:07:27.427Z,13.20
2019-03-30T01:09:57.792Z,13.70
2019-03-30T01:12:28.184Z,11.73
2019-03-30T01:14:58.504Z,11.60
2019-03-30T01:17:29.004Z,11.70
2019-03-30T01:20:03.063Z,12.10
2019-03-30T01:22:31.523Z,11.00
2019-03-30T01:25:01.830Z,11.47
2019-03-30T01:27:32.185Z,11.77
2019-03-30T01:30:02.562Z,12.10
2019-03-30T01:32:35.045Z,11.67
2019-03-30T01:35:05.092Z,11.60
2019-03-30T01:37:35.528Z,12.83
2019-03-30T01:40:06.311Z,11.00
2019-03-30T01:42:36.646Z,13.00
2019-03-30T01:45:08.152Z,12.33
2019-03-30T01:47:38.525Z,11.80
2019-03-30T01:50:17.226Z,11.87
2019-03-30T01:52:42.338Z,12.43
2019-03-30T01:55:12.880Z,11.50
2019-03-30T01:57:43.254Z,12.80
2019-03-30T02:00:14.320Z,11.70
2019-03-30T02:02:45.064Z,12.27
2019-03-30T02:05:15.736Z,12.40
2019-03-30T02:07:46.224Z,12.93
2019-03-30T02:10:26.047Z,13.20
2019-03-30T02:12:56.556Z,14.03
2019-03-30T02:15:26.959Z,13.67
2019-03-30T02:17:57.336Z,13.33
2019-03-30T02:20:37.984Z,13.97
2019-03-30T02:23:08.440Z,13.57
2019-03-30T02:25:38.918Z,13.70
2019-03-30T02:28:09.596Z,14.17
2019-03-30T02:30:40.152Z,13.67
2019-03-30T02:33:10.480Z,13.50
2019-03-30T02:35:40.825Z,14.10
2019-03-30T02:38:11.220Z,14.17
2019-03-30T02:40:41.570Z,13.70
2019-03-30T02:43:11.984Z,13.83
2019-03-30T02:45:42.313Z,14.40
2019-03-30T02:48:12.653Z,14.30
2019-03-30T02:50:49.914Z,14.03
2019-03-30T02:53:15.027Z,13.70
2019-03-30T02:55:45.418Z,13.47
2019-03-30T02:58:15.797Z,14.17
2019-03-30T03:00:46.170Z,13.20
2019-03-30T03:03:16.521Z,13.77
2019-03-30T03:05:46.804Z,13.17
2019-03-30T03:08:17.219Z,13.57
2019-03-30T03:10:47.562Z,13.40
2019-03-30T03:13:17.940Z,13.33
2019-03-30T03:15:48.360Z,12.53
2019-03-30T03:18:23.284Z,13.47
2019-03-30T03:21:06.489Z,12.77
2019-03-30T03:23:25.642Z,11.70
2019-03-30T03:25:56.131Z,11.90
2019-03-30T03:28:26.501Z,11.73
2019-03-30T03:30:56.877Z,11.33
2019-03-30T03:33:27.306Z,11.37
2019-03-30T03:35:57.599Z,10.90
2019-03-30T03:38:27.938Z,11.20
2019-03-30T03:40:58.422Z,11.17
2019-03-30T03:43:28.761Z,10.70
2019-03-30T03:45:59.135Z,10.53
2019-03-30T03:48:29.517Z,10.37
2019-03-30T03:51:03.091Z,10.73
2019-03-30T03:53:34.775Z,10.93
2019-03-30T03:56:06.433Z,9.67
2019-03-30T03:58:37.556Z,10.20
2019-03-30T04:01:08.102Z,9.97
2019-03-30T04:03:39.422Z,9.70
2019-03-30T04:06:09.907Z,10.20
2019-03-30T04:08:41.850Z,10.03
2019-03-30T04:11:13.612Z,9.07
2019-03-30T04:13:47.333Z,9.73
2019-03-30T04:16:17.600Z,9.60
2019-03-30T04:18:48.649Z,10.07
2019-03-30T04:21:19.097Z,9.33
2019-03-30T04:23:53.935Z,9.90
2019-03-30T04:26:21.465Z,9.37
2019-03-30T04:28:51.944Z,9.10
2019-03-30T04:31:22.315Z,9.47
2019-03-30T04:33:52.664Z,10.03
2019-03-30T04:36:22.979Z,8.73
2019-03-30T04:38:53.310Z,9.17
2019-03-30T04:41:23.625Z,8.60
2019-03-30T04:43:54.043Z,8.70
2019-03-30T04:46:24.452Z,8.10
2019-03-30T04:48:54.866Z,8.93
2019-03-30T04:51:25.278Z,8.13
2019-03-30T04:53:55.614Z,8.13
2019-03-30T04:56:26.043Z,7.53
2019-03-30T04:58:56.409Z,8.40
2019-03-30T05:01:26.887Z,8.03
2019-03-30T05:03:57.249Z,8.33
2019-03-30T05:06:27.553Z,8.33
2019-03-30T05:08:57.977Z,8.67
2019-03-30T05:11:28.292Z,8.30
2019-03-30T05:13:58.691Z,8.43
2019-03-30T05:16:28.949Z,7.63
2019-03-30T05:18:59.397Z,7.53
2019-03-30T05:21:31.128Z,6.87
2019-03-30T05:24:01.487Z,6.93
2019-03-30T05:26:31.851Z,6.77
2019-03-30T05:29:02.171Z,6.80
2019-03-30T05:31:32.584Z,6.90
2019-03-30T05:34:05.173Z,6.77
2019-03-30T05:36:35.559Z,5.53
2019-03-30T05:39:06.835Z,6.20
2019-03-30T05:41:37.176Z,6.57
2019-03-30T05:44:07.438Z,5.53
2019-03-30T05:46:38.164Z,5.80
2019-03-30T05:49:08.565Z,5.73
2019-03-30T05:51:38.976Z,5.73
2019-03-30T05:54:09.294Z,5.53
2019-03-30T05:56:39.745Z,5.70
2019-03-30T05:59:10.000Z,5.40
2019-03-30T06:01:40.511Z,5.03
2019-03-30T06:04:10.895Z,5.00
2019-03-30T06:06:41.225Z,4.87
2019-03-30T06:09:11.531Z,4.47
2019-03-30T06:11:41.909Z,4.60
2019-03-30T06:14:12.215Z,3.73
2019-03-30T06:16:42.645Z,3.60
2019-03-30T06:19:13.007Z,3.87
2019-03-30T06:21:43.333Z,4.13
2019-03-30T06:24:13.700Z,3.80
2019-03-30T06:26:44.033Z,3.67
2019-03-30T06:29:14.409Z,4.10
2019-03-30T06:31:46.705Z,3.80
2019-03-30T06:34:16.753Z,3.63
2019-03-30T06:36:47.131Z,3.97
2019-03-30T06:39:18.422Z,3.93
2019-03-30T06:41:48.812Z,3.90
2019-03-30T06:44:19.169Z,3.80
2019-03-30T06:46:49.520Z,3.97
2019-03-30T06:49:19.937Z,4.00
2019-03-30T06:51:50.274Z,4.20
2019-03-30T06:54:20.712Z,4.00
2019-03-30T06:57:09.808Z,4.27
2019-03-30T06:59:40.174Z,3.97
2019-03-30T07:02:11.563Z,4.00
2019-03-30T07:04:41.977Z,4.40
2019-03-30T07:07:12.663Z,4.23
2019-03-30T07:09:43.973Z,4.37
2019-03-30T07:12:15.321Z,4.20
2019-03-30T07:14:47.989Z,4.10
2019-03-30T07:17:18.540Z,4.33
2019-03-30T07:19:51.006Z,4.47
2019-03-30T07:22:21.399Z,4.50
2019-03-30T07:24:51.772Z,4.77
2019-03-30T07:27:22.307Z,5.20
2019-03-30T07:29:52.679Z,5.03
2019-03-30T07:32:23.076Z,4.73
2019-03-30T07:34:53.477Z,5.10
2019-03-30T07:37:23.832Z,5.40
2019-03-30T07:39:54.156Z,5.30
2019-03-30T07:42:24.598Z,5.20
2019-03-30T07:44:54.941Z,5.10
2019-03-30T07:47:25.297Z,5.07
2019-03-30T07:49:55.655Z,5.30
2019-03-30T07:52:26.005Z,5.20
2019-03-30T07:54:56.406Z,5.20
2019-03-30T07:57:26.769Z,5.60
2019-03-30T07:59:57.165Z,5.50
2019-03-30T08:02:27.487Z,5.53
2019-03-30T08:04:57.902Z,5.10
2019-03-30T08:07:28.324Z,5.97
2019-03-30T08:09:58.674Z,5.37
2019-03-30T08:12:29.051Z,5.30
2019-03-30T08:14:59.477Z,5.53
2019-03-30T08:17:29.962Z,5.23
2019-03-30T08:20:00.388Z,5.40
2019-03-30T08:22:30.784Z,6.20
2019-03-30T08:25:01.226Z,6.00
2019-03-30T08:27:31.612Z,5.90
2019-03-30T08:30:01.957Z,5.77
2019-03-30T08:32:32.415Z,5.80
2019-03-30T08:35:02.863Z,6.00
2019-03-30T08:37:33.280Z,5.80
2019-03-30T08:40:03.811Z,6.10
2019-03-30T08:42:34.293Z,5.97
2019-03-30T08:45:04.897Z,5.37
2019-03-30T08:47:35.294Z,6.30
2019-03-30T08:50:06.550Z,5.67
2019-03-30T08:52:37.563Z,6.20
2019-03-30T08:55:08.852Z,6.53
2019-03-30T08:57:39.124Z,7.50
2019-03-30T09:00:09.836Z,6.57
2019-03-30T09:02:40.291Z,6.77
2019-03-30T09:05:11.045Z,7.47
2019-03-30T09:07:41.367Z,7.27
2019-03-30T09:10:14.447Z,7.13
2019-03-30T09:12:44.911Z,7.17
2019-03-30T09:15:16.341Z,7.67
2019-03-30T09:17:46.689Z,7.47
2019-03-30T09:20:17.417Z,7.33
2019-03-30T09:22:47.869Z,9.03
2019-03-30T09:25:18.186Z,7.70
2019-03-30T09:27:48.590Z,8.03
2019-03-30T09:30:19.284Z,7.90
2019-03-30T09:32:49.764Z,8.97
2019-03-30T09:35:20.082Z,8.43
2019-03-30T09:37:50.472Z,8.50
2019-03-30T09:40:20.867Z,9.73
2019-03-30T09:42:51.271Z,8.80
2019-03-30T09:45:21.732Z,9.03
2019-03-30T09:47:52.172Z,8.77
2019-03-30T09:50:22.696Z,8.83
2019-03-30T09:52:53.062Z,9.10
2019-03-30T09:55:26.971Z,9.87
2019-03-30T09:57:55.565Z,10.30
2019-03-30T10:00:25.927Z,10.40
2019-03-30T10:02:56.336Z,9.97
2019-03-30T10:05:26.701Z,9.30
2019-03-30T10:07:57.041Z,9.77
2019-03-30T10:10:27.380Z,9.40
2019-03-30T10:12:57.767Z,9.80
2019-03-30T10:15:28.202Z,9.20
2019-03-30T10:17:58.615Z,10.33
2019-03-30T10:20:28.967Z,8.87
2019-03-30T10:22:59.347Z,9.60
2019-03-30T10:25:29.715Z,9.37
2019-03-30T10:28:00.077Z,9.37
2019-03-30T10:30:30.472Z,9.90
2019-03-30T10:33:00.840Z,10.00
2019-03-30T10:35:31.376Z,9.60
2019-03-30T10:38:01.887Z,10.07
2019-03-30T10:40:32.545Z,9.57
2019-03-30T10:43:02.956Z,9.23
2019-03-30T10:45:33.368Z,9.43
2019-03-30T10:48:03.773Z,9.87
2019-03-30T10:50:36.289Z,9.63
2019-03-30T10:53:06.691Z,9.73
2019-03-30T10:55:37.061Z,10.13
2019-03-30T10:58:07.565Z,10.00
2019-03-30T11:00:41.632Z,10.13
2019-03-30T11:03:12.087Z,10.63
2019-03-30T11:05:42.483Z,10.37
2019-03-30T11:08:12.831Z,10.50
2019-03-30T11:10:43.147Z,10.67
2019-03-30T11:13:13.560Z,10.37
2019-03-30T11:15:43.898Z,10.10
2019-03-30T11:18:14.329Z,10.60
2019-03-30T11:20:45.949Z,11.10
2019-03-30T11:23:16.426Z,10.90
2019-03-30T11:25:46.834Z,10.60
2019-03-30T11:28:17.233Z,9.97
2019-03-30T11:30:47.668Z,10.33
2019-03-30T11:33:17.993Z,10.17
2019-03-30T11:35:48.433Z,10.43
2019-03-30T11:38:18.772Z,11.13
2019-03-30T11:40:49.228Z,9.83
2019-03-30T11:43:19.588Z,10.17
2019-03-30T11:45:50.022Z,10.30
2019-03-30T11:48:20.375Z,10.47
2019-03-30T11:50:50.898Z,10.03
2019-03-30T11:53:21.272Z,11.17
2019-03-30T11:55:51.546Z,10.90
2019-03-30T11:58:21.948Z,10.87
2019-03-30T12:00:52.312Z,10.57
2019-03-30T12:03:22.702Z,10.90
2019-03-30T12:05:53.062Z,10.10
2019-03-30T12:08:23.466Z,9.97
2019-03-30T12:10:53.837Z,8.63
2019-03-30T12:13:24.130Z,7.90
2019-03-30T12:15:54.530Z,7.37
2019-03-30T12:18:24.820Z,8.20
2019-03-30T12:20:55.187Z,8.20
2019-03-30T12:23:25.570Z,9.93
2019-03-30T12:25:56.027Z,9.37
2019-03-30T12:28:26.474Z,9.67
2019-03-30T12:30:56.871Z,9.70
2019-03-30T12:33:27.355Z,9.57
2019-03-30T12:35:57.743Z,9.30
2019-03-30T12:41:33.509Z,9.67
2019-03-30T12:44:03.861Z,9.40
2019-03-30T12:46:34.701Z,10.73
2019-03-30T12:49:05.604Z,10.10
2019-03-30T12:51:35.950Z,9.57
2019-03-30T12:54:06.354Z,9.27
2019-03-30T12:56:39.995Z,9.70
2019-03-30T12:59:10.887Z,9.73
2019-03-30T13:01:56.472Z,9.23
2019-03-30T13:04:32.935Z,10.20
2019-03-30T13:07:03.489Z,9.83
2019-03-30T13:09:34.884Z,9.77
2019-03-30T13:12:05.497Z,9.03
2019-03-30T13:14:36.080Z,9.90
2019-03-30T13:17:06.627Z,9.50
2019-03-30T13:19:37.087Z,9.67
2019-03-30T13:22:07.502Z,9.87
2019-03-30T13:24:37.900Z,9.63
2019-03-30T13:27:08.305Z,9.43
2019-03-30T13:29:38.725Z,8.67
2019-03-30T13:32:09.055Z,8.90
2019-03-30T13:34:39.416Z,8.10
2019-03-30T13:37:17.742Z,8.20
2019-03-30T13:39:48.104Z,8.63
2019-03-30T13:42:19.763Z,8.40
2019-03-30T13:44:50.142Z,7.97
2019-03-30T13:47:20.684Z,9.03
2019-03-30T13:49:51.041Z,8.17
2019-03-30T13:52:21.435Z,8.70
2019-03-30T13:54:51.790Z,7.70
2019-03-30T13:57:22.229Z,7.57
2019-03-30T13:59:52.651Z,7.53
2019-03-30T14:02:22.968Z,8.10
2019-03-30T14:04:53.376Z,7.27
2019-03-30T14:07:23.782Z,7.13
2019-03-30T14:09:54.193Z,7.47
2019-03-30T14:12:24.517Z,7.83
2019-03-30T14:14:54.867Z,7.40
2019-03-30T14:17:25.207Z,7.40
2019-03-30T14:19:55.601Z,6.90
2019-03-30T14:22:25.962Z,6.63
2019-03-30T14:24:56.367Z,6.40
2019-03-30T14:27:26.738Z,6.60
2019-03-30T14:29:57.195Z,6.80
2019-03-30T14:32:27.556Z,6.90
2019-03-30T14:34:57.860Z,7.67
2019-03-30T14:37:28.180Z,6.90
2019-03-30T14:39:58.574Z,8.20
2019-03-30T14:42:29.028Z,7.37
2019-03-30T14:44:59.395Z,7.30
2019-03-30T14:47:29.795Z,7.83
2019-03-30T14:50:00.106Z,7.60
2019-03-30T14:52:30.818Z,7.33
2019-03-30T14:55:01.799Z,8.30
2019-03-30T14:57:32.108Z,9.03
2019-03-30T15:00:02.612Z,8.23
2019-03-30T15:02:32.937Z,8.10
2019-03-30T15:05:03.372Z,8.47
2019-03-30T15:07:33.718Z,8.73
2019-03-30T15:10:04.226Z,7.40
2019-03-30T15:12:34.644Z,8.37
2019-03-30T15:15:05.329Z,7.87
2019-03-30T15:17:35.709Z,7.53
2019-03-30T15:20:07.073Z,8.03
2019-03-30T15:22:37.439Z,7.13
2019-03-30T15:25:08.871Z,7.90
2019-03-30T15:27:39.299Z,8.10
2019-03-30T15:30:10.321Z,8.60
2019-03-30T15:32:40.743Z,8.90
2019-03-30T15:35:11.400Z,8.33
2019-03-30T15:37:41.842Z,7.47
2019-03-30T15:40:12.204Z,8.67
2019-03-30T15:42:42.633Z,8.33
2019-03-30T15:45:13.315Z,9.70
2019-03-30T15:47:43.860Z,8.83
2019-03-30T15:50:14.690Z,9.30
2019-03-30T15:52:45.169Z,10.57
2019-03-30T15:55:15.624Z,11.27
2019-03-30T15:57:46.382Z,9.87
2019-03-30T16:00:17.576Z,11.20
2019-03-30T16:02:48.015Z,10.33
2019-03-30T16:05:18.620Z,9.77
2019-03-30T16:07:48.967Z,8.60
2019-03-30T16:10:19.296Z,8.77
2019-03-30T16:12:49.610Z,9.73
2019-03-30T16:15:19.981Z,9.10
2019-03-30T16:17:50.324Z,9.70
2019-03-30T16:20:20.764Z,9.60
2019-03-30T16:22:51.178Z,10.60
2019-03-30T16:25:21.623Z,10.53
2019-03-30T16:27:51.989Z,10.07
2019-03-30T16:30:22.705Z,10.20
2019-03-30T16:32:53.050Z,9.87
2019-03-30T16:35:23.435Z,10.47
2019-03-30T16:37:53.825Z,11.80
2019-03-30T16:40:24.209Z,11.90
2019-03-30T16:42:54.635Z,11.97
2019-03-30T16:45:24.977Z,12.03
2019-03-30T16:47:55.362Z,12.27
2019-03-30T16:50:25.655Z,10.83
2019-03-30T16:52:56.073Z,10.23
2019-03-30T16:55:26.525Z,10.43
2019-03-30T16:57:56.857Z,9.93
2019-03-30T17:00:28.743Z,10.90
2019-03-30T17:02:59.130Z,10.50
2019-03-30T17:05:29.537Z,10.07
2019-03-30T17:07:59.877Z,11.07
2019-03-30T17:10:30.291Z,10.30
2019-03-30T17:13:00.700Z,10.90
2019-03-30T17:15:31.060Z,11.10
2019-03-30T17:18:01.426Z,11.07
2019-03-30T17:20:32.664Z,11.07
2019-03-30T17:23:03.044Z,10.97
2019-03-30T17:25:33.519Z,11.93
2019-03-30T17:28:06.741Z,11.23
2019-03-30T17:30:36.004Z,10.87
2019-03-30T17:33:06.386Z,10.90
2019-03-30T17:35:36.836Z,11.37
2019-03-30T17:38:07.169Z,11.77
2019-03-30T17:40:37.772Z,11.10
2019-03-30T17:43:08.122Z,11.97
2019-03-30T17:45:38.531Z,11.47
2019-03-30T17:48:08.887Z,12.50
2019-03-30T17:50:39.354Z,12.03
2019-03-30T17:53:09.688Z,12.70
2019-03-30T17:55:40.100Z,13.50
2019-03-30T17:58:13.403Z,13.30
2019-03-30T18:00:42.492Z,14.90
2019-03-30T18:03:12.872Z,17.77
2019-03-30T18:05:43.216Z,17.27
2019-03-30T18:08:13.561Z,16.63
2019-03-30T18:10:43.934Z,18.67
2019-03-30T18:13:14.315Z,17.70
2019-03-30T18:15:44.661Z,17.87
2019-03-30T18:18:15.068Z,16.73
2019-03-30T18:20:45.421Z,18.00
2019-03-30T18:23:15.759Z,16.57
2019-03-30T18:25:46.143Z,17.50
2019-03-30T18:28:26.962Z,17.77
2019-03-30T18:30:48.516Z,18.40
2019-03-30T18:33:18.957Z,18.57
2019-03-30T18:35:49.447Z,23.17
2019-03-30T18:38:20.241Z,25.60
2019-03-30T18:40:50.639Z,23.60
2019-03-30T18:43:21.476Z,20.73
2019-03-30T18:45:51.843Z,21.27
2019-03-30T18:48:22.400Z,21.13
2019-03-30T18:50:52.783Z,20.20
2019-03-30T18:53:23.335Z,20.20
2019-03-30T18:55:53.666Z,20.23
2019-03-30T18:58:24.134Z,19.40
2019-03-30T19:00:54.548Z,20.87
2019-03-30T19:03:24.887Z,20.60
2019-03-30T19:05:55.308Z,19.33
2019-03-30T19:08:25.700Z,17.07
2019-03-30T19:10:56.049Z,17.67
2019-03-30T19:13:26.400Z,17.07
2019-03-30T19:15:56.854Z,19.23
2019-03-30T19:18:27.294Z,19.73
2019-03-30T19:20:57.616Z,16.90
2019-03-30T19:23:27.936Z,15.53
2019-03-30T19:25:59.205Z,16.47
2019-03-30T19:28:29.987Z,15.87
2019-03-30T19:31:00.385Z,15.27
2019-03-30T19:33:30.799Z,15.90
2019-03-30T19:36:01.277Z,16.30
2019-03-30T19:38:31.638Z,18.67
2019-03-30T19:41:01.956Z,21.57
2019-03-30T19:43:32.436Z,22.40
2019-03-30T19:46:02.837Z,20.73
2019-03-30T19:48:36.834Z,21.63
2019-03-30T19:51:06.951Z,21.30
2019-03-30T19:53:37.314Z,20.30
2019-03-30T19:56:07.714Z,21.10
2019-03-30T19:58:39.129Z,21.90
2019-03-30T20:01:09.682Z,22.90
2019-03-30T20:03:40.244Z,22.50
2019-03-30T20:06:10.807Z,23.03
2019-03-30T20:08:41.223Z,23.43
2019-03-30T20:11:11.653Z,24.07
2019-03-30T20:13:42.000Z,24.17
2019-03-30T20:16:13.273Z,24.20
2019-03-30T20:18:43.663Z,23.37
2019-03-30T20:21:14.059Z,24.97
2019-03-30T20:23:44.688Z,24.43
2019-03-30T20:26:15.060Z,22.23
2019-03-30T20:28:45.376Z,22.87
2019-03-30T20:31:15.776Z,27.40
2019-03-30T20:33:46.123Z,25.93
2019-03-30T20:36:16.575Z,24.53
2019-03-30T20:38:47.042Z,24.23
2019-03-30T20:41:17.433Z,22.70
2019-03-30T20:43:47.940Z,22.63
2019-03-30T20:46:18.591Z,22.83
2019-03-30T20:48:48.920Z,23.77
2019-03-30T20:51:19.223Z,23.97
2019-03-30T20:53:49.628Z,22.73
2019-03-30T20:56:19.986Z,23.20
2019-03-30T20:58:50.343Z,23.40
2019-03-30T21:01:20.795Z,22.00
2019-03-30T21:03:51.241Z,21.37
2019-03-30T21:06:21.616Z,21.33
2019-03-30T21:08:51.983Z,19.63
2019-03-30T21:11:22.366Z,20.23
2019-03-30T21:13:52.807Z,19.10
2019-03-30T21:16:23.332Z,20.30
2019-03-30T21:18:53.746Z,20.63
2019-03-30T21:21:24.179Z,20.33
2019-03-30T21:23:54.627Z,21.43
2019-03-30T21:26:28.395Z,21.23
2019-03-30T21:28:57.108Z,21.53
2019-03-30T21:31:27.648Z,22.97
2019-03-30T21:33:58.046Z,21.40
2019-03-30T21:36:28.621Z,22.87
2019-03-30T21:38:59.068Z,23.40
2019-03-30T21:41:29.377Z,22.97
2019-03-30T21:43:59.751Z,22.37
2019-03-30T21:46:30.127Z,22.20
2019-03-30T21:49:00.512Z,21.00
2019-03-30T21:51:30.853Z,20.43
2019-03-30T21:54:01.214Z,20.80
2019-03-30T21:56:31.653Z,21.83
2019-03-30T21:59:01.964Z,21.80
2019-03-30T22:01:32.439Z,21.17
2019-03-30T22:04:03.197Z,21.67
2019-03-30T22:06:33.722Z,21.23
2019-03-30T22:09:06.650Z,22.30
2019-03-30T22:11:37.080Z,21.27
2019-03-30T22:14:07.552Z,20.67
2019-03-30T22:16:38.043Z,21.30
2019-03-30T22:19:08.467Z,21.00
2019-03-30T22:21:38.867Z,21.27
2019-03-30T22:24:09.209Z,21.27
2019-03-30T22:26:39.626Z,20.07
2019-03-30T22:29:10.025Z,21.17
2019-03-30T22:31:40.303Z,21.73
2019-03-30T22:34:10.664Z,20.90
2019-03-30T22:36:41.090Z,20.33
2019-03-30T22:39:11.495Z,20.67
2019-03-30T22:41:41.956Z,21.50
2019-03-30T22:44:12.365Z,22.03
2019-03-30T22:46:42.666Z,21.70
2019-03-30T22:49:13.215Z,23.80
2019-03-30T22:51:43.544Z,24.17
2019-03-30T22:54:13.929Z,26.17
2019-03-30T22:56:44.288Z,25.10
2019-03-30T22:59:14.724Z,26.30
2019-03-30T23:01:45.130Z,24.50
2019-03-30T23:04:15.683Z,23.10
2019-03-30T23:06:46.062Z,21.20
2019-03-30T23:09:16.372Z,21.23
2019-03-30T23:11:46.668Z,19.90
2019-03-30T23:14:17.051Z,21.57
2019-03-30T23:16:47.475Z,20.20
2019-03-30T23:19:17.909Z,20.30
2019-03-30T23:21:48.239Z,20.40
2019-03-30T23:24:18.648Z,20.77
2019-03-30T23:26:48.979Z,20.77
2019-03-30T23:29:19.357Z,20.47
2019-03-30T23:31:49.788Z,21.23
2019-03-30T23:34:20.057Z,21.73
2019-03-30T23:36:50.465Z,20.17
2019-03-30T23:39:20.821Z,20.97
2019-03-30T23:41:51.227Z,21.67
2019-03-30T23:44:21.690Z,21.60
2019-03-30T23:46:52.149Z,21.07
2019-03-30T23:49:22.449Z,21.40
2019-03-30T23:51:52.807Z,20.67
2019-03-30T23:54:23.128Z,22.07
2019-03-30T23:56:53.444Z,20.83
2019-03-30T23:59:23.862Z,21.13
